createdAt,value
2023-02-22T00:01:43.068Z,21.07
2023-02-22T00:04:11.122Z,21.00
2023-02-22T00:06:37.782Z,20.47
2023-02-22T00:09:04.993Z,20.57
2023-02-22T00:11:31.836Z,20.93
2023-02-22T00:13:58.681Z,20.40
2023-02-22T00:16:26.800Z,19.90
2023-02-22T00:18:53.867Z,20.30
2023-02-22T00:21:21.347Z,20.23
2023-02-22T00:23:49.124Z,20.87
2023-02-22T00:26:21.599Z,21.27
2023-02-22T00:28:52.405Z,21.77
2023-02-22T00:31:20.069Z,21.20
2023-02-22T00:33:47.231Z,21.17
2023-02-22T00:36:14.627Z,20.00
2023-02-22T00:38:42.089Z,20.20
2023-02-22T00:41:09.238Z,20.03
2023-02-22T00:43:36.084Z,21.07
2023-02-22T00:46:02.926Z,20.73
2023-02-22T00:48:29.789Z,21.07
2023-02-22T00:50:56.646Z,20.10
2023-02-22T00:53:25.289Z,21.70
2023-02-22T00:55:52.529Z,21.87
2023-02-22T00:58:19.343Z,22.10
2023-02-22T01:00:46.688Z,20.93
2023-02-22T01:03:15.302Z,20.50
2023-02-22T01:05:42.566Z,20.13
2023-02-22T01:08:11.756Z,20.33
2023-02-22T01:10:39.252Z,20.77
2023-02-22T01:13:09.472Z,20.97
2023-02-22T01:15:38.578Z,21.97
2023-02-22T01:18:06.186Z,20.83
2023-02-22T01:20:33.344Z,20.07
2023-02-22T01:23:01.677Z,20.43
2023-02-22T01:25:31.071Z,20.70
2023-02-22T01:27:59.336Z,21.07
2023-02-22T01:30:29.112Z,20.97
2023-02-22T01:32:56.309Z,20.67
2023-02-22T01:35:26.183Z,22.17
2023-02-22T01:37:52.946Z,20.40
2023-02-22T01:40:23.444Z,20.40
2023-02-22T01:42:55.584Z,20.70
2023-02-22T01:45:32.826Z,19.43
2023-02-22T01:48:10.065Z,20.53
2023-02-22T01:50:43.905Z,20.27
2023-02-22T01:53:12.277Z,20.47
2023-02-22T01:55:39.299Z,20.77
2023-02-22T01:58:06.732Z,20.63
2023-02-22T02:00:33.482Z,20.77
2023-02-22T02:03:06.862Z,20.20
2023-02-22T02:05:34.885Z,20.20
2023-02-22T02:08:13.438Z,20.20
2023-02-22T02:10:41.826Z,20.37
2023-02-22T02:13:08.694Z,20.33
2023-02-22T02:15:35.488Z,21.10
2023-02-22T02:18:05.342Z,21.17
2023-02-22T02:20:53.288Z,21.23
2023-02-22T02:23:44.754Z,21.80
2023-02-22T02:26:38.842Z,21.17
2023-02-22T02:29:24.338Z,22.00
2023-02-22T02:32:26.376Z,21.73
2023-02-22T02:35:01.151Z,20.53
2023-02-22T02:37:33.404Z,21.20
2023-02-22T02:40:11.570Z,20.43
2023-02-22T02:42:57.420Z,19.97
2023-02-22T02:45:30.505Z,17.93
2023-02-22T02:47:59.505Z,17.43
2023-02-22T02:50:30.041Z,16.60
2023-02-22T02:52:59.895Z,16.63
2023-02-22T02:55:28.597Z,16.67
2023-02-22T02:57:55.902Z,16.97
2023-02-22T03:00:27.425Z,16.90
2023-02-22T03:02:54.084Z,16.33
2023-02-22T03:05:42.556Z,15.87
2023-02-22T03:08:15.102Z,14.97
2023-02-22T03:10:54.084Z,14.80
2023-02-22T03:13:42.584Z,14.33
2023-02-22T03:16:21.531Z,15.43
2023-02-22T03:18:54.444Z,15.43
2023-02-22T03:21:52.867Z,15.00
2023-02-22T03:24:28.582Z,14.93
2023-02-22T03:27:28.187Z,14.67
2023-02-22T03:30:00.508Z,14.30
2023-02-22T03:32:34.952Z,14.13
2023-02-22T03:35:07.015Z,14.40
2023-02-22T03:37:35.846Z,13.47
2023-02-22T03:40:14.119Z,13.30
2023-02-22T03:42:48.227Z,13.83
2023-02-22T03:45:16.309Z,13.23
2023-02-22T03:47:58.216Z,12.90
2023-02-22T03:50:30.474Z,12.73
2023-02-22T03:53:01.121Z,12.23
2023-02-22T03:55:29.172Z,13.17
2023-02-22T03:57:58.758Z,13.10
2023-02-22T04:00:28.209Z,12.47
2023-02-22T04:02:55.000Z,12.20
2023-02-22T04:05:22.176Z,13.17
2023-02-22T04:07:49.767Z,12.60
2023-02-22T04:10:16.802Z,12.23
2023-02-22T04:12:43.743Z,12.80
2023-02-22T04:15:13.552Z,12.90
2023-02-22T04:17:40.799Z,12.30
2023-02-22T04:20:13.872Z,13.30
2023-02-22T04:22:41.705Z,12.93
2023-02-22T04:25:08.615Z,13.17
2023-02-22T04:27:35.489Z,13.37
2023-02-22T04:30:02.499Z,14.13
2023-02-22T04:32:29.961Z,12.83
2023-02-22T04:34:57.031Z,13.93
2023-02-22T04:37:24.046Z,13.37
2023-02-22T04:39:51.087Z,13.23
2023-02-22T04:42:18.000Z,13.30
2023-02-22T04:44:45.033Z,13.20
2023-02-22T04:47:12.078Z,13.13
2023-02-22T04:49:39.177Z,13.40
2023-02-22T04:52:06.144Z,12.40
2023-02-22T04:54:33.231Z,13.00
2023-02-22T04:57:00.010Z,12.77
2023-02-22T04:59:26.844Z,12.83
2023-02-22T05:01:53.927Z,12.33
2023-02-22T05:04:23.680Z,12.10
2023-02-22T05:06:51.422Z,12.03
2023-02-22T05:09:19.228Z,12.40
2023-02-22T05:11:46.027Z,12.10
2023-02-22T05:14:13.092Z,12.37
2023-02-22T05:16:39.917Z,12.57
2023-02-22T05:19:06.878Z,11.57
2023-02-22T05:21:33.777Z,12.40
2023-02-22T05:24:00.667Z,12.63
2023-02-22T05:26:28.065Z,13.33
2023-02-22T05:28:55.014Z,12.60
2023-02-22T05:31:22.134Z,13.57
2023-02-22T05:33:48.979Z,14.77
2023-02-22T05:36:17.178Z,14.43
2023-02-22T05:38:44.938Z,14.20
2023-02-22T05:41:12.989Z,14.53
2023-02-22T05:43:40.949Z,14.40
2023-02-22T05:46:08.289Z,14.07
2023-02-22T05:48:34.935Z,15.13
2023-02-22T05:51:01.615Z,13.73
2023-02-22T05:53:28.341Z,15.70
2023-02-22T05:55:55.042Z,14.47
2023-02-22T05:58:22.172Z,13.67
2023-02-22T06:00:48.871Z,15.37
2023-02-22T06:03:15.666Z,14.70
2023-02-22T06:05:42.400Z,14.53
2023-02-22T06:08:09.653Z,15.50
2023-02-22T06:10:36.672Z,14.37
2023-02-22T06:13:04.848Z,14.80
2023-02-22T06:15:31.636Z,14.73
2023-02-22T06:17:59.224Z,14.80
2023-02-22T06:20:27.482Z,14.40
2023-02-22T06:22:59.455Z,14.67
2023-02-22T06:25:28.384Z,15.20
2023-02-22T06:27:55.022Z,15.17
2023-02-22T06:30:24.573Z,15.00
2023-02-22T06:32:51.729Z,15.13
2023-02-22T06:35:18.933Z,15.30
2023-02-22T06:37:46.028Z,14.57
2023-02-22T06:40:14.260Z,14.60
2023-02-22T06:42:41.406Z,14.50
2023-02-22T06:45:10.434Z,13.70
2023-02-22T06:47:41.502Z,14.10
2023-02-22T06:50:18.692Z,15.20
2023-02-22T06:52:45.652Z,13.93
2023-02-22T06:55:12.597Z,14.47
2023-02-22T06:57:44.580Z,14.93
2023-02-22T07:00:12.345Z,14.30
2023-02-22T07:02:39.116Z,14.70
2023-02-22T07:05:06.428Z,14.47
2023-02-22T07:07:33.730Z,14.77
2023-02-22T07:10:00.405Z,14.97
2023-02-22T07:12:27.069Z,13.63
2023-02-22T07:14:56.339Z,13.40
2023-02-22T07:17:22.994Z,13.23
2023-02-22T07:19:49.702Z,13.60
2023-02-22T07:22:17.749Z,13.33
2023-02-22T07:24:44.391Z,13.43
2023-02-22T07:27:13.489Z,13.67
2023-02-22T07:29:42.908Z,13.03
2023-02-22T07:32:10.181Z,13.37
2023-02-22T07:34:37.686Z,13.63
2023-02-22T07:37:04.370Z,12.13
2023-02-22T07:39:31.572Z,12.77
2023-02-22T07:41:59.388Z,12.97
2023-02-22T07:44:32.110Z,11.80
2023-02-22T07:46:58.808Z,12.90
2023-02-22T07:49:25.421Z,12.57
2023-02-22T07:51:52.102Z,12.47
2023-02-22T07:54:18.834Z,12.90
2023-02-22T07:56:48.470Z,12.40
2023-02-22T07:59:16.146Z,12.80
2023-02-22T08:01:42.849Z,12.63
2023-02-22T08:04:09.532Z,12.33
2023-02-22T08:06:36.225Z,12.70
2023-02-22T08:09:03.010Z,12.00
2023-02-22T08:11:29.740Z,11.23
2023-02-22T08:13:56.458Z,11.43
2023-02-22T08:16:23.128Z,11.80
2023-02-22T08:18:49.764Z,11.90
2023-02-22T08:21:17.335Z,12.07
2023-02-22T08:23:44.148Z,12.43
2023-02-22T08:26:15.802Z,10.67
2023-02-22T08:28:43.297Z,11.67
2023-02-22T08:31:10.101Z,11.00
2023-02-22T08:33:36.872Z,11.63
2023-02-22T08:36:03.787Z,12.17
2023-02-22T08:38:31.441Z,11.27
2023-02-22T08:40:58.270Z,12.30
2023-02-22T08:43:25.083Z,11.03
2023-02-22T08:46:02.379Z,11.43
2023-02-22T08:48:29.301Z,12.00
2023-02-22T08:50:56.401Z,11.50
2023-02-22T08:53:23.326Z,11.07
2023-02-22T08:55:49.988Z,11.77
2023-02-22T08:58:16.831Z,11.60
2023-02-22T09:00:44.969Z,11.10
2023-02-22T09:03:14.082Z,11.33
2023-02-22T09:05:42.147Z,11.67
2023-02-22T09:08:09.098Z,11.80
2023-02-22T09:10:36.317Z,11.67
2023-02-22T09:13:04.295Z,11.50
2023-02-22T09:15:31.787Z,11.57
2023-02-22T09:17:58.843Z,11.83
2023-02-22T09:20:26.200Z,11.90
2023-02-22T09:22:53.450Z,11.80
2023-02-22T09:25:20.829Z,11.80
2023-02-22T09:27:49.364Z,11.13
2023-02-22T09:30:18.637Z,10.77
2023-02-22T09:32:45.428Z,12.23
2023-02-22T09:35:13.211Z,11.60
2023-02-22T09:37:40.045Z,11.37
2023-02-22T09:40:10.076Z,11.43
2023-02-22T09:42:45.798Z,11.83
2023-02-22T09:45:24.609Z,10.93
2023-02-22T09:47:59.751Z,10.93
2023-02-22T09:50:35.837Z,11.10
2023-02-22T09:53:06.367Z,10.33
2023-02-22T09:55:37.318Z,10.13
2023-02-22T09:58:12.562Z,11.13
2023-02-22T10:00:41.350Z,10.07
2023-02-22T10:03:47.149Z,10.30
2023-02-22T10:06:23.479Z,9.70
2023-02-22T10:08:56.558Z,10.23
2023-02-22T10:11:53.969Z,9.70
2023-02-22T10:14:44.115Z,9.77
2023-02-22T10:17:33.754Z,9.97
2023-02-22T10:20:13.589Z,9.40
2023-02-22T10:23:03.501Z,9.63
2023-02-22T10:25:35.127Z,9.10
2023-02-22T10:28:23.604Z,9.20
2023-02-22T10:30:56.219Z,9.23
2023-02-22T10:33:26.735Z,9.20
2023-02-22T10:35:56.619Z,8.70
2023-02-22T10:38:28.171Z,8.93
2023-02-22T10:41:10.035Z,9.43
2023-02-22T10:43:43.566Z,8.63
2023-02-22T10:46:13.920Z,8.23
2023-02-22T10:48:42.766Z,8.70
2023-02-22T10:51:11.412Z,8.40
2023-02-22T10:53:40.848Z,8.90
2023-02-22T10:56:19.102Z,7.50
2023-02-22T10:58:48.864Z,7.47
2023-02-22T11:01:35.804Z,6.90
2023-02-22T11:04:16.905Z,6.50
2023-02-22T11:06:49.937Z,6.47
2023-02-22T11:09:22.525Z,6.50
2023-02-22T11:11:50.704Z,6.93
2023-02-22T11:14:29.579Z,6.27
2023-02-22T11:16:58.518Z,6.20
2023-02-22T11:19:27.731Z,6.90
2023-02-22T11:21:57.792Z,6.30
2023-02-22T11:24:30.302Z,6.90
2023-02-22T11:27:02.198Z,6.57
2023-02-22T11:29:35.794Z,6.27
2023-02-22T11:32:21.223Z,6.07
2023-02-22T11:35:03.667Z,6.70
2023-02-22T11:37:36.956Z,6.10
2023-02-22T11:40:13.957Z,6.87
2023-02-22T11:42:40.784Z,7.40
2023-02-22T11:45:23.998Z,7.30
2023-02-22T11:47:59.156Z,7.07
2023-02-22T11:51:03.729Z,6.40
2023-02-22T11:53:48.692Z,6.93
2023-02-22T11:56:41.897Z,5.97
2023-02-22T11:59:23.956Z,6.00
2023-02-22T12:02:01.528Z,5.87
2023-02-22T12:04:45.865Z,6.47
2023-02-22T12:07:30.909Z,6.47
2023-02-22T12:10:09.188Z,6.20
2023-02-22T12:12:47.952Z,7.00
2023-02-22T12:15:36.609Z,6.90
2023-02-22T12:18:06.333Z,6.73
2023-02-22T12:20:55.662Z,6.87
2023-02-22T12:23:30.700Z,6.70
2023-02-22T12:26:12.520Z,6.73
2023-02-22T12:28:47.980Z,7.20
2023-02-22T12:31:24.389Z,6.57
2023-02-22T12:34:03.832Z,6.90
2023-02-22T12:36:51.986Z,6.97
2023-02-22T12:39:40.987Z,7.23
2023-02-22T12:42:18.169Z,5.80
2023-02-22T12:44:48.875Z,6.17
2023-02-22T12:47:20.492Z,6.27
2023-02-22T12:50:03.214Z,6.40
2023-02-22T12:52:47.035Z,6.07
2023-02-22T12:55:31.857Z,6.60
2023-02-22T12:58:14.196Z,7.17
2023-02-22T13:00:51.379Z,6.87
2023-02-22T13:03:37.005Z,7.27
2023-02-22T13:06:11.670Z,7.70
2023-02-22T13:09:24.600Z,7.50
2023-02-22T13:11:57.683Z,7.07
2023-02-22T13:14:33.736Z,7.83
2023-02-22T13:17:07.372Z,7.90
2023-02-22T13:19:49.182Z,7.30
2023-02-22T13:22:45.104Z,7.20
2023-02-22T13:25:24.270Z,7.50
2023-02-22T13:28:21.692Z,7.53
2023-02-22T13:31:06.439Z,6.93
2023-02-22T13:34:13.272Z,7.93
2023-02-22T13:36:58.364Z,7.90
2023-02-22T13:39:43.633Z,7.80
2023-02-22T13:42:43.988Z,7.90
2023-02-22T13:45:28.977Z,9.17
2023-02-22T13:48:01.599Z,8.10
2023-02-22T13:50:43.704Z,8.73
2023-02-22T13:53:17.302Z,9.13
2023-02-22T13:55:48.264Z,8.70
2023-02-22T13:58:15.592Z,8.80
2023-02-22T14:00:49.713Z,8.67
2023-02-22T14:03:16.854Z,8.47
2023-02-22T14:05:44.826Z,8.77
2023-02-22T14:08:14.325Z,9.43
2023-02-22T14:10:44.341Z,10.30
2023-02-22T14:13:11.570Z,10.00
2023-02-22T14:15:58.240Z,10.13
2023-02-22T14:18:26.627Z,8.67
2023-02-22T14:21:13.098Z,8.60
2023-02-22T14:23:53.687Z,9.20
2023-02-22T14:26:28.005Z,8.03
2023-02-22T14:28:58.241Z,9.40
2023-02-22T14:31:36.517Z,8.47
2023-02-22T14:34:14.285Z,7.40
2023-02-22T14:36:43.910Z,7.87
2023-02-22T14:39:34.636Z,8.37
2023-02-22T14:42:09.878Z,8.57
2023-02-22T14:45:00.246Z,8.47
2023-02-22T14:47:49.718Z,8.30
2023-02-22T14:50:25.944Z,8.00
2023-02-22T14:53:08.881Z,8.37
2023-02-22T14:55:41.606Z,8.50
2023-02-22T14:58:12.828Z,9.23
2023-02-22T15:00:46.134Z,9.73
2023-02-22T15:03:37.545Z,9.83
2023-02-22T15:06:20.904Z,8.93
2023-02-22T15:08:49.130Z,9.07
2023-02-22T15:11:31.276Z,9.47
2023-02-22T15:13:59.251Z,9.17
2023-02-22T15:16:33.645Z,9.47
2023-02-22T15:19:06.835Z,8.67
2023-02-22T15:21:35.533Z,9.03
2023-02-22T15:24:05.455Z,8.90
2023-02-22T15:26:52.021Z,8.37
2023-02-22T15:29:38.298Z,8.30
2023-02-22T15:32:49.904Z,8.80
2023-02-22T15:35:26.007Z,8.27
2023-02-22T15:38:27.149Z,8.47
2023-02-22T15:41:08.052Z,8.97
2023-02-22T15:43:35.009Z,8.43
2023-02-22T15:46:01.881Z,9.17
2023-02-22T15:48:31.924Z,9.10
2023-02-22T15:51:18.044Z,8.50
2023-02-22T15:53:50.061Z,9.23
2023-02-22T15:56:25.973Z,9.37
2023-02-22T15:58:59.805Z,9.60
2023-02-22T16:01:27.297Z,9.63
2023-02-22T16:03:58.670Z,9.67
2023-02-22T16:06:37.411Z,9.67
2023-02-22T16:09:33.266Z,9.47
2023-02-22T16:12:21.672Z,9.83
2023-02-22T16:14:50.154Z,9.43
2023-02-22T16:17:31.488Z,10.00
2023-02-22T16:19:59.835Z,10.10
2023-02-22T16:22:35.471Z,9.93
2023-02-22T16:25:16.849Z,10.13
2023-02-22T16:27:50.640Z,9.73
2023-02-22T16:30:32.853Z,10.63
2023-02-22T16:33:00.899Z,10.10
2023-02-22T16:35:29.326Z,10.30
2023-02-22T16:38:01.928Z,10.37
2023-02-22T16:40:32.391Z,10.53
2023-02-22T16:43:08.384Z,10.73
2023-02-22T16:45:36.231Z,10.87
2023-02-22T16:48:15.223Z,10.77
2023-02-22T16:50:42.027Z,10.80
2023-02-22T16:53:20.181Z,10.63
2023-02-22T16:55:51.237Z,10.90
2023-02-22T16:58:22.642Z,11.10
2023-02-22T17:00:49.404Z,10.90
2023-02-22T17:03:21.647Z,11.20
2023-02-22T17:05:48.552Z,11.27
2023-02-22T17:08:20.122Z,10.87
2023-02-22T17:10:47.151Z,9.97
2023-02-22T17:13:23.014Z,10.80
2023-02-22T17:15:51.129Z,10.53
2023-02-22T17:18:23.129Z,11.30
2023-02-22T17:20:55.813Z,10.73
2023-02-22T17:23:24.344Z,11.43
2023-02-22T17:25:51.060Z,11.40
2023-02-22T17:28:17.872Z,14.20
2023-02-22T17:30:45.413Z,17.10
2023-02-22T17:33:16.587Z,17.30
2023-02-22T17:35:44.217Z,13.80
2023-02-22T17:38:11.085Z,13.70
2023-02-22T17:40:42.301Z,13.60
2023-02-22T17:43:11.305Z,13.30
2023-02-22T17:45:39.129Z,12.80
2023-02-22T17:48:06.221Z,13.33
2023-02-22T17:50:33.091Z,13.60
2023-02-22T17:53:03.512Z,14.10
2023-02-22T17:55:31.538Z,16.07
2023-02-22T17:57:58.771Z,15.73
2023-02-22T18:00:34.035Z,14.97
2023-02-22T18:03:03.489Z,14.43
2023-02-22T18:05:33.270Z,15.57
2023-02-22T18:08:00.302Z,16.77
2023-02-22T18:10:27.461Z,15.80
2023-02-22T18:12:55.219Z,15.60
2023-02-22T18:15:21.992Z,18.73
2023-02-22T18:17:49.314Z,18.27
2023-02-22T18:20:20.378Z,18.30
2023-02-22T18:22:47.166Z,19.97
2023-02-22T18:25:15.985Z,20.07
2023-02-22T18:27:45.986Z,17.83
2023-02-22T18:30:13.101Z,18.13
2023-02-22T18:32:40.155Z,18.87
2023-02-22T18:35:07.577Z,19.23
2023-02-22T18:37:34.746Z,18.10
2023-02-22T18:40:01.588Z,20.40
2023-02-22T18:42:29.114Z,18.57
2023-02-22T18:45:00.806Z,18.63
2023-02-22T18:47:27.667Z,18.07
2023-02-22T18:49:54.450Z,17.17
2023-02-22T18:52:22.996Z,18.73
2023-02-22T18:54:50.231Z,17.87
2023-02-22T18:57:17.230Z,19.77
2023-02-22T18:59:45.050Z,18.53
2023-02-22T19:02:17.647Z,16.30
2023-02-22T19:04:44.472Z,16.67
2023-02-22T19:07:17.688Z,16.33
2023-02-22T19:09:44.960Z,16.37
2023-02-22T19:12:12.067Z,16.73
2023-02-22T19:14:38.920Z,16.67
2023-02-22T19:17:07.578Z,15.87
2023-02-22T19:19:34.442Z,15.77
2023-02-22T19:22:01.454Z,15.40
2023-02-22T19:24:28.888Z,16.83
2023-02-22T19:26:57.656Z,16.67
2023-02-22T19:29:25.252Z,16.37
2023-02-22T19:31:54.872Z,16.40
2023-02-22T19:34:23.964Z,16.60
2023-02-22T19:36:50.807Z,16.80
2023-02-22T19:41:48.888Z,16.93
2023-02-22T19:44:15.988Z,17.77
2023-02-22T19:46:47.720Z,16.57
2023-02-22T19:49:16.426Z,17.30
2023-02-22T19:51:43.253Z,17.60
2023-02-22T19:54:16.134Z,17.03
2023-02-22T19:56:43.093Z,17.43
2023-02-22T19:59:13.786Z,16.97
2023-02-22T20:01:44.423Z,17.10
2023-02-22T20:04:17.861Z,17.47
2023-02-22T20:06:46.057Z,17.97
2023-02-22T20:09:18.250Z,17.37
2023-02-22T20:11:48.512Z,17.70
2023-02-22T20:14:28.617Z,17.37
2023-02-22T20:16:55.951Z,16.67
2023-02-22T20:19:22.984Z,17.73
2023-02-22T20:21:49.744Z,16.90
2023-02-22T20:24:18.456Z,17.20
2023-02-22T20:26:46.679Z,16.70
2023-02-22T20:29:14.709Z,17.90
2023-02-22T20:31:44.407Z,18.00
2023-02-22T20:34:11.710Z,18.27
2023-02-22T20:36:40.352Z,18.83
2023-02-22T20:39:08.054Z,18.67
2023-02-22T20:41:35.904Z,19.37
2023-02-22T20:44:03.908Z,18.87
2023-02-22T20:46:31.803Z,18.40
2023-02-22T20:49:00.367Z,18.10
2023-02-22T20:51:28.741Z,20.87
2023-02-22T20:53:59.951Z,21.23
2023-02-22T20:56:28.476Z,21.97
2023-02-22T20:59:03.538Z,22.40
2023-02-22T21:01:31.261Z,20.93
2023-02-22T21:04:02.501Z,21.10
2023-02-22T21:06:29.845Z,22.13
2023-02-22T21:08:58.884Z,21.40
2023-02-22T21:11:28.018Z,20.90
2023-02-22T21:13:55.004Z,21.37
2023-02-22T21:16:24.637Z,22.30
2023-02-22T21:18:52.673Z,21.70
2023-02-22T21:21:20.193Z,19.83
2023-02-22T21:23:52.553Z,21.23
2023-02-22T21:26:23.684Z,21.13
2023-02-22T21:28:52.008Z,21.10
2023-02-22T21:31:21.131Z,20.20
2023-02-22T21:33:53.351Z,21.03
2023-02-22T21:36:20.856Z,21.87
2023-02-22T21:38:53.393Z,21.23
2023-02-22T21:41:21.289Z,22.00
2023-02-22T21:43:51.844Z,20.37
2023-02-22T21:46:19.006Z,22.07
2023-02-22T21:48:48.911Z,21.80
2023-02-22T21:51:32.612Z,21.83
2023-02-22T21:54:04.167Z,22.60
2023-02-22T21:56:34.486Z,21.97
2023-02-22T21:59:05.062Z,22.20
2023-02-22T22:01:47.328Z,21.93
2023-02-22T22:04:19.110Z,22.73
2023-02-22T22:06:51.001Z,23.20
2023-02-22T22:09:21.986Z,23.83
2023-02-22T22:11:58.523Z,22.07
2023-02-22T22:14:26.493Z,22.93
2023-02-22T22:17:01.166Z,23.97
2023-02-22T22:19:29.493Z,22.50
2023-02-22T22:21:57.398Z,21.93
2023-02-22T22:24:24.356Z,22.17
2023-02-22T22:26:54.820Z,21.93
2023-02-22T22:29:23.896Z,21.73
2023-02-22T22:31:51.560Z,21.83
2023-02-22T22:34:18.300Z,22.13
2023-02-22T22:36:45.140Z,22.40
2023-02-22T22:39:14.663Z,21.17
2023-02-22T22:41:42.412Z,21.80
2023-02-22T22:44:09.997Z,21.73
2023-02-22T22:46:39.845Z,22.50
2023-02-22T22:49:11.588Z,22.20
2023-02-22T22:51:40.978Z,21.13
2023-02-22T22:54:09.518Z,22.70
2023-02-22T22:56:38.082Z,22.30
2023-02-22T22:59:09.846Z,21.87
2023-02-22T23:01:44.749Z,22.63
2023-02-22T23:04:16.533Z,21.60
2023-02-22T23:06:50.056Z,22.53
2023-02-22T23:09:24.715Z,22.27
2023-02-22T23:11:53.597Z,21.67
2023-02-22T23:14:24.700Z,24.20
2023-02-22T23:16:56.592Z,24.07
2023-02-22T23:19:23.278Z,30.60
2023-02-22T23:21:50.488Z,31.00
2023-02-22T23:24:20.886Z,30.07
2023-02-22T23:26:50.972Z,29.73
2023-02-22T23:29:19.320Z,26.00
2023-02-22T23:31:48.519Z,27.90
2023-02-22T23:34:21.352Z,27.17
2023-02-22T23:36:48.744Z,25.53
2023-02-22T23:39:17.488Z,25.70
2023-02-22T23:41:44.207Z,25.37
2023-02-22T23:44:14.145Z,25.13
2023-02-22T23:46:41.232Z,24.73
2023-02-22T23:49:09.999Z,24.97
2023-02-22T23:51:39.698Z,25.27
2023-02-22T23:54:07.654Z,25.60
2023-02-22T23:56:35.502Z,24.57
2023-02-22T23:59:08.571Z,24.47
